sensor_id;sensor_type;location;lat;lon;timestamp;P1;durP1;ratioP1;P2;durP2;ratioP2
28174;SDS011;59417;44.788;10.334;2023-07-02T00:01:11;11.25;;;9.25;;
28174;SDS011;59417;44.788;10.334;2023-07-02T00:03:37;8.57;;;7.65;;
28174;SDS011;59417;44.788;10.334;2023-07-02T00:06:03;10.10;;;8.35;;
28174;SDS011;59417;44.788;10.334;2023-07-02T00:08:29;10.30;;;8.75;;
28174;SDS011;59417;44.788;10.334;2023-07-02T00:10:54;9.10;;;8.15;;
28174;SDS011;59417;44.788;10.334;2023-07-02T00:13:20;10.70;;;8.02;;
28174;SDS011;59417;44.788;10.334;2023-07-02T00:15:46;11.55;;;8.82;;
28174;SDS011;59417;44.788;10.334;2023-07-02T00:18:12;11.57;;;8.52;;
28174;SDS011;59417;44.788;10.334;2023-07-02T00:20:41;11.38;;;8.50;;
28174;SDS011;59417;44.788;10.334;2023-07-02T00:23:07;9.52;;;8.52;;
28174;SDS011;59417;44.788;10.334;2023-07-02T00:25:36;11.30;;;7.93;;
28174;SDS011;59417;44.788;10.334;2023-07-02T00:28:02;10.50;;;8.13;;
28174;SDS011;59417;44.788;10.334;2023-07-02T00:30:28;8.50;;;7.60;;
28174;SDS011;59417;44.788;10.334;2023-07-02T00:32:54;10.80;;;7.90;;
28174;SDS011;59417;44.788;10.334;2023-07-02T00:35:21;8.18;;;7.35;;
28174;SDS011;59417;44.788;10.334;2023-07-02T00:37:48;7.57;;;6.78;;
28174;SDS011;59417;44.788;10.334;2023-07-02T00:40:14;8.43;;;7.05;;
28174;SDS011;59417;44.788;10.334;2023-07-02T00:42:40;11.10;;;7.03;;
28174;SDS011;59417;44.788;10.334;2023-07-02T00:45:05;10.05;;;7.63;;
28174;SDS011;59417;44.788;10.334;2023-07-02T00:47:35;10.05;;;8.55;;
28174;SDS011;59417;44.788;10.334;2023-07-02T00:50:00;8.50;;;7.07;;
28174;SDS011;59417;44.788;10.334;2023-07-02T00:52:27;10.75;;;7.72;;
28174;SDS011;59417;44.788;10.334;2023-07-02T00:54:53;8.60;;;7.25;;
28174;SDS011;59417;44.788;10.334;2023-07-02T00:57:20;7.88;;;6.88;;
28174;SDS011;59417;44.788;10.334;2023-07-02T00:59:46;10.45;;;6.85;;
28174;SDS011;59417;44.788;10.334;2023-07-02T01:02:11;8.85;;;7.95;;
28174;SDS011;59417;44.788;10.334;2023-07-02T01:04:38;10.23;;;7.63;;
28174;SDS011;59417;44.788;10.334;2023-07-02T01:07:04;11.35;;;8.10;;
28174;SDS011;59417;44.788;10.334;2023-07-02T01:09:35;9.48;;;6.75;;
28174;SDS011;59417;44.788;10.334;2023-07-02T01:12:02;7.50;;;6.47;;
28174;SDS011;59417;44.788;10.334;2023-07-02T01:14:31;6.90;;;6.20;;
28174;SDS011;59417;44.788;10.334;2023-07-02T01:16:59;9.32;;;7.07;;
28174;SDS011;59417;44.788;10.334;2023-07-02T01:19:36;8.98;;;7.32;;
28174;SDS011;59417;44.788;10.334;2023-07-02T01:22:16;8.15;;;6.68;;
28174;SDS011;59417;44.788;10.334;2023-07-02T01:24:43;9.52;;;6.97;;
28174;SDS011;59417;44.788;10.334;2023-07-02T01:27:12;11.73;;;7.27;;
28174;SDS011;59417;44.788;10.334;2023-07-02T01:29:40;9.25;;;6.97;;
28174;SDS011;59417;44.788;10.334;2023-07-02T01:32:06;7.68;;;6.55;;
28174;SDS011;59417;44.788;10.334;2023-07-02T01:34:33;11.30;;;6.65;;
28174;SDS011;59417;44.788;10.334;2023-07-02T01:37:00;9.60;;;6.05;;
28174;SDS011;59417;44.788;10.334;2023-07-02T01:39:26;9.70;;;6.72;;
28174;SDS011;59417;44.788;10.334;2023-07-02T01:41:55;7.78;;;5.88;;
28174;SDS011;59417;44.788;10.334;2023-07-02T01:44:34;12.23;;;6.82;;
28174;SDS011;59417;44.788;10.334;2023-07-02T01:47:00;6.60;;;5.90;;
28174;SDS011;59417;44.788;10.334;2023-07-02T01:49:25;8.43;;;6.57;;
28174;SDS011;59417;44.788;10.334;2023-07-02T01:51:52;11.05;;;7.05;;
28174;SDS011;59417;44.788;10.334;2023-07-02T01:54:19;9.85;;;6.10;;
28174;SDS011;59417;44.788;10.334;2023-07-02T01:56:45;6.93;;;5.88;;
28174;SDS011;59417;44.788;10.334;2023-07-02T01:59:11;9.27;;;6.55;;
28174;SDS011;59417;44.788;10.334;2023-07-02T02:01:37;7.90;;;6.43;;
28174;SDS011;59417;44.788;10.334;2023-07-02T02:04:06;10.65;;;6.10;;
28174;SDS011;59417;44.788;10.334;2023-07-02T02:06:32;12.55;;;6.78;;
28174;SDS011;59417;44.788;10.334;2023-07-02T02:08:58;10.48;;;6.85;;
28174;SDS011;59417;44.788;10.334;2023-07-02T02:11:24;10.43;;;7.32;;
28174;SDS011;59417;44.788;10.334;2023-07-02T02:13:50;9.15;;;6.82;;
28174;SDS011;59417;44.788;10.334;2023-07-02T02:16:15;8.90;;;6.82;;
28174;SDS011;59417;44.788;10.334;2023-07-02T02:18:41;7.10;;;6.38;;
28174;SDS011;59417;44.788;10.334;2023-07-02T02:21:06;7.75;;;6.53;;
28174;SDS011;59417;44.788;10.334;2023-07-02T02:23:33;10.88;;;6.00;;
28174;SDS011;59417;44.788;10.334;2023-07-02T02:25:58;10.48;;;6.50;;
28174;SDS011;59417;44.788;10.334;2023-07-02T02:28:24;6.88;;;6.07;;
28174;SDS011;59417;44.788;10.334;2023-07-02T02:30:50;7.57;;;6.15;;
28174;SDS011;59417;44.788;10.334;2023-07-02T02:33:15;9.00;;;6.60;;
28174;SDS011;59417;44.788;10.334;2023-07-02T02:35:42;7.32;;;6.25;;
28174;SDS011;59417;44.788;10.334;2023-07-02T02:38:09;8.38;;;5.88;;
28174;SDS011;59417;44.788;10.334;2023-07-02T02:40:35;8.07;;;5.75;;
28174;SDS011;59417;44.788;10.334;2023-07-02T02:43:01;8.23;;;6.25;;
28174;SDS011;59417;44.788;10.334;2023-07-02T02:45:27;8.27;;;6.05;;
28174;SDS011;59417;44.788;10.334;2023-07-02T02:47:54;9.43;;;6.30;;
28174;SDS011;59417;44.788;10.334;2023-07-02T02:50:21;7.68;;;5.30;;
28174;SDS011;59417;44.788;10.334;2023-07-02T02:52:46;6.45;;;5.75;;
28174;SDS011;59417;44.788;10.334;2023-07-02T02:55:12;8.77;;;5.25;;
28174;SDS011;59417;44.788;10.334;2023-07-02T02:57:38;7.70;;;5.43;;
28174;SDS011;59417;44.788;10.334;2023-07-02T03:00:04;6.32;;;5.18;;
28174;SDS011;59417;44.788;10.334;2023-07-02T03:02:30;9.05;;;5.80;;
28174;SDS011;59417;44.788;10.334;2023-07-02T03:04:56;8.43;;;5.80;;
28174;SDS011;59417;44.788;10.334;2023-07-02T03:07:22;6.18;;;5.57;;
28174;SDS011;59417;44.788;10.334;2023-07-02T03:09:48;7.28;;;5.45;;
28174;SDS011;59417;44.788;10.334;2023-07-02T03:12:13;12.68;;;6.10;;
28174;SDS011;59417;44.788;10.334;2023-07-02T03:14:39;8.63;;;5.60;;
28174;SDS011;59417;44.788;10.334;2023-07-02T03:17:05;6.60;;;4.90;;
28174;SDS011;59417;44.788;10.334;2023-07-02T03:19:31;9.07;;;4.72;;
28174;SDS011;59417;44.788;10.334;2023-07-02T03:21:56;9.00;;;5.45;;
28174;SDS011;59417;44.788;10.334;2023-07-02T03:24:22;7.57;;;5.57;;
28174;SDS011;59417;44.788;10.334;2023-07-02T03:26:47;7.88;;;5.20;;
28174;SDS011;59417;44.788;10.334;2023-07-02T03:29:13;6.10;;;4.63;;
28174;SDS011;59417;44.788;10.334;2023-07-02T03:31:38;7.28;;;5.03;;
28174;SDS011;59417;44.788;10.334;2023-07-02T03:34:08;6.40;;;5.15;;
28174;SDS011;59417;44.788;10.334;2023-07-02T03:36:34;10.30;;;4.82;;
28174;SDS011;59417;44.788;10.334;2023-07-02T03:39:00;10.50;;;5.50;;
28174;SDS011;59417;44.788;10.334;2023-07-02T03:41:27;13.25;;;5.20;;
28174;SDS011;59417;44.788;10.334;2023-07-02T03:43:53;10.45;;;5.13;;
28174;SDS011;59417;44.788;10.334;2023-07-02T03:46:19;9.90;;;5.80;;
28174;SDS011;59417;44.788;10.334;2023-07-02T03:48:44;9.20;;;5.30;;
28174;SDS011;59417;44.788;10.334;2023-07-02T03:51:10;6.35;;;5.10;;
28174;SDS011;59417;44.788;10.334;2023-07-02T03:53:39;6.78;;;4.72;;
28174;SDS011;59417;44.788;10.334;2023-07-02T03:56:05;9.43;;;5.75;;
28174;SDS011;59417;44.788;10.334;2023-07-02T03:58:31;5.75;;;4.90;;
28174;SDS011;59417;44.788;10.334;2023-07-02T04:00:57;5.93;;;5.03;;
28174;SDS011;59417;44.788;10.334;2023-07-02T04:03:22;8.20;;;5.38;;
28174;SDS011;59417;44.788;10.334;2023-07-02T04:05:48;6.82;;;4.90;;
28174;SDS011;59417;44.788;10.334;2023-07-02T04:08:14;9.00;;;5.13;;
28174;SDS011;59417;44.788;10.334;2023-07-02T04:10:40;6.57;;;4.90;;
28174;SDS011;59417;44.788;10.334;2023-07-02T04:13:06;8.27;;;5.90;;
28174;SDS011;59417;44.788;10.334;2023-07-02T04:15:32;11.35;;;5.30;;
28174;SDS011;59417;44.788;10.334;2023-07-02T04:17:58;8.00;;;5.05;;
28174;SDS011;59417;44.788;10.334;2023-07-02T04:20:24;12.45;;;5.43;;
28174;SDS011;59417;44.788;10.334;2023-07-02T04:22:51;7.35;;;4.95;;
28174;SDS011;59417;44.788;10.334;2023-07-02T04:25:16;8.07;;;4.88;;
28174;SDS011;59417;44.788;10.334;2023-07-02T04:27:45;8.60;;;5.05;;
28174;SDS011;59417;44.788;10.334;2023-07-02T04:30:11;8.40;;;6.03;;
28174;SDS011;59417;44.788;10.334;2023-07-02T04:32:37;8.60;;;5.68;;
28174;SDS011;59417;44.788;10.334;2023-07-02T04:35:07;15.98;;;6.25;;
28174;SDS011;59417;44.788;10.334;2023-07-02T04:37:33;8.48;;;5.68;;
28174;SDS011;59417;44.788;10.334;2023-07-02T04:39:59;7.97;;;6.40;;
28174;SDS011;59417;44.788;10.334;2023-07-02T04:42:25;6.40;;;5.03;;
28174;SDS011;59417;44.788;10.334;2023-07-02T04:44:55;7.95;;;5.05;;
28174;SDS011;59417;44.788;10.334;2023-07-02T04:47:21;6.35;;;4.35;;
28174;SDS011;59417;44.788;10.334;2023-07-02T04:49:47;8.20;;;5.07;;
28174;SDS011;59417;44.788;10.334;2023-07-02T04:52:13;8.68;;;5.10;;
28174;SDS011;59417;44.788;10.334;2023-07-02T04:54:38;8.52;;;5.35;;
28174;SDS011;59417;44.788;10.334;2023-07-02T04:57:04;6.30;;;5.13;;
28174;SDS011;59417;44.788;10.334;2023-07-02T04:59:29;6.53;;;4.70;;
28174;SDS011;59417;44.788;10.334;2023-07-02T05:01:55;6.63;;;4.75;;
28174;SDS011;59417;44.788;10.334;2023-07-02T05:04:21;5.55;;;4.82;;
28174;SDS011;59417;44.788;10.334;2023-07-02T05:06:46;7.43;;;5.13;;
28174;SDS011;59417;44.788;10.334;2023-07-02T05:09:12;5.72;;;4.82;;
28174;SDS011;59417;44.788;10.334;2023-07-02T05:11:37;7.18;;;4.43;;
28174;SDS011;59417;44.788;10.334;2023-07-02T05:14:03;6.68;;;5.13;;
28174;SDS011;59417;44.788;10.334;2023-07-02T05:16:29;7.32;;;5.07;;
28174;SDS011;59417;44.788;10.334;2023-07-02T05:18:54;7.05;;;4.45;;
28174;SDS011;59417;44.788;10.334;2023-07-02T05:21:20;10.75;;;4.97;;
28174;SDS011;59417;44.788;10.334;2023-07-02T05:23:46;6.78;;;4.53;;
28174;SDS011;59417;44.788;10.334;2023-07-02T05:26:12;7.65;;;5.22;;
28174;SDS011;59417;44.788;10.334;2023-07-02T05:28:38;6.07;;;4.85;;
28174;SDS011;59417;44.788;10.334;2023-07-02T05:31:03;7.63;;;4.82;;
28174;SDS011;59417;44.788;10.334;2023-07-02T05:33:29;5.78;;;4.55;;
28174;SDS011;59417;44.788;10.334;2023-07-02T05:35:57;7.68;;;5.10;;
28174;SDS011;59417;44.788;10.334;2023-07-02T05:38:23;7.90;;;4.88;;
28174;SDS011;59417;44.788;10.334;2023-07-02T05:40:49;7.38;;;5.05;;
28174;SDS011;59417;44.788;10.334;2023-07-02T05:43:15;7.32;;;4.80;;
28174;SDS011;59417;44.788;10.334;2023-07-02T05:45:41;6.75;;;5.20;;
28174;SDS011;59417;44.788;10.334;2023-07-02T05:48:07;7.97;;;5.10;;
28174;SDS011;59417;44.788;10.334;2023-07-02T05:50:32;5.72;;;4.45;;
28174;SDS011;59417;44.788;10.334;2023-07-02T05:52:58;5.05;;;4.10;;
28174;SDS011;59417;44.788;10.334;2023-07-02T05:55:24;6.93;;;5.13;;
28174;SDS011;59417;44.788;10.334;2023-07-02T05:57:49;6.47;;;4.22;;
28174;SDS011;59417;44.788;10.334;2023-07-02T06:00:15;6.45;;;4.72;;
28174;SDS011;59417;44.788;10.334;2023-07-02T06:02:45;6.80;;;5.05;;
28174;SDS011;59417;44.788;10.334;2023-07-02T06:05:11;7.47;;;4.82;;
28174;SDS011;59417;44.788;10.334;2023-07-02T06:07:37;6.28;;;4.28;;
28174;SDS011;59417;44.788;10.334;2023-07-02T06:10:03;10.45;;;5.10;;
28174;SDS011;59417;44.788;10.334;2023-07-02T06:12:28;7.28;;;4.93;;
28174;SDS011;59417;44.788;10.334;2023-07-02T06:14:54;5.70;;;4.85;;
28174;SDS011;59417;44.788;10.334;2023-07-02T06:17:20;6.78;;;5.13;;
28174;SDS011;59417;44.788;10.334;2023-07-02T06:19:46;6.35;;;5.50;;
28174;SDS011;59417;44.788;10.334;2023-07-02T06:22:12;8.07;;;4.82;;
28174;SDS011;59417;44.788;10.334;2023-07-02T06:24:38;7.90;;;5.18;;
28174;SDS011;59417;44.788;10.334;2023-07-02T06:27:03;7.25;;;5.32;;
28174;SDS011;59417;44.788;10.334;2023-07-02T06:29:29;9.25;;;4.97;;
28174;SDS011;59417;44.788;10.334;2023-07-02T06:31:54;5.85;;;4.30;;
28174;SDS011;59417;44.788;10.334;2023-07-02T06:34:20;8.48;;;5.03;;
28174;SDS011;59417;44.788;10.334;2023-07-02T06:36:46;6.13;;;4.25;;
28174;SDS011;59417;44.788;10.334;2023-07-02T06:39:11;6.18;;;4.60;;
28174;SDS011;59417;44.788;10.334;2023-07-02T06:41:37;6.13;;;4.43;;
28174;SDS011;59417;44.788;10.334;2023-07-02T06:44:03;5.68;;;4.18;;
28174;SDS011;59417;44.788;10.334;2023-07-02T06:46:29;8.10;;;4.70;;
28174;SDS011;59417;44.788;10.334;2023-07-02T06:48:55;5.25;;;4.32;;
28174;SDS011;59417;44.788;10.334;2023-07-02T06:51:22;7.38;;;4.80;;
28174;SDS011;59417;44.788;10.334;2023-07-02T06:53:48;4.88;;;3.92;;
28174;SDS011;59417;44.788;10.334;2023-07-02T06:56:13;6.18;;;4.38;;
28174;SDS011;59417;44.788;10.334;2023-07-02T06:58:41;6.97;;;4.13;;
28174;SDS011;59417;44.788;10.334;2023-07-02T07:01:07;6.72;;;4.38;;
28174;SDS011;59417;44.788;10.334;2023-07-02T07:03:33;5.70;;;4.60;;
28174;SDS011;59417;44.788;10.334;2023-07-02T07:06:00;6.60;;;4.70;;
28174;SDS011;59417;44.788;10.334;2023-07-02T07:08:25;9.45;;;4.80;;
28174;SDS011;59417;44.788;10.334;2023-07-02T07:10:51;10.93;;;4.93;;
28174;SDS011;59417;44.788;10.334;2023-07-02T07:13:16;9.10;;;5.55;;
28174;SDS011;59417;44.788;10.334;2023-07-02T07:15:42;6.68;;;4.88;;
28174;SDS011;59417;44.788;10.334;2023-07-02T07:18:08;12.55;;;6.30;;
28174;SDS011;59417;44.788;10.334;2023-07-02T07:20:34;9.18;;;5.88;;
28174;SDS011;59417;44.788;10.334;2023-07-02T07:23:02;7.63;;;4.95;;
28174;SDS011;59417;44.788;10.334;2023-07-02T07:25:28;6.55;;;5.15;;
28174;SDS011;59417;44.788;10.334;2023-07-02T07:27:54;5.95;;;4.88;;
28174;SDS011;59417;44.788;10.334;2023-07-02T07:30:20;8.75;;;5.63;;
28174;SDS011;59417;44.788;10.334;2023-07-02T07:32:48;7.10;;;4.55;;
28174;SDS011;59417;44.788;10.334;2023-07-02T07:35:15;6.63;;;4.28;;
28174;SDS011;59417;44.788;10.334;2023-07-02T07:37:41;5.85;;;5.18;;
28174;SDS011;59417;44.788;10.334;2023-07-02T07:40:07;5.70;;;5.10;;
28174;SDS011;59417;44.788;10.334;2023-07-02T07:42:33;5.65;;;4.60;;
28174;SDS011;59417;44.788;10.334;2023-07-02T07:44:58;6.43;;;4.63;;
28174;SDS011;59417;44.788;10.334;2023-07-02T07:47:24;6.82;;;5.05;;
28174;SDS011;59417;44.788;10.334;2023-07-02T07:49:49;5.70;;;4.90;;
28174;SDS011;59417;44.788;10.334;2023-07-02T07:52:15;9.63;;;5.50;;
28174;SDS011;59417;44.788;10.334;2023-07-02T07:54:40;6.78;;;5.03;;
28174;SDS011;59417;44.788;10.334;2023-07-02T07:57:06;8.90;;;5.38;;
28174;SDS011;59417;44.788;10.334;2023-07-02T07:59:32;6.32;;;4.35;;
28174;SDS011;59417;44.788;10.334;2023-07-02T08:01:58;4.95;;;4.25;;
28174;SDS011;59417;44.788;10.334;2023-07-02T08:04:24;5.65;;;4.68;;
28174;SDS011;59417;44.788;10.334;2023-07-02T08:06:49;7.05;;;5.47;;
28174;SDS011;59417;44.788;10.334;2023-07-02T08:09:15;5.63;;;5.03;;
28174;SDS011;59417;44.788;10.334;2023-07-02T08:11:40;8.30;;;5.53;;
28174;SDS011;59417;44.788;10.334;2023-07-02T08:14:06;6.30;;;5.15;;
28174;SDS011;59417;44.788;10.334;2023-07-02T08:16:31;8.63;;;5.45;;
28174;SDS011;59417;44.788;10.334;2023-07-02T08:18:57;7.28;;;5.50;;
28174;SDS011;59417;44.788;10.334;2023-07-02T08:21:22;13.15;;;5.78;;
28174;SDS011;59417;44.788;10.334;2023-07-02T08:23:48;6.45;;;4.93;;
28174;SDS011;59417;44.788;10.334;2023-07-02T08:26:14;6.43;;;4.88;;
28174;SDS011;59417;44.788;10.334;2023-07-02T08:28:39;5.68;;;5.00;;
28174;SDS011;59417;44.788;10.334;2023-07-02T08:31:05;7.38;;;4.47;;
28174;SDS011;59417;44.788;10.334;2023-07-02T08:33:31;6.25;;;5.35;;
28174;SDS011;59417;44.788;10.334;2023-07-02T08:35:57;8.85;;;6.05;;
28174;SDS011;59417;44.788;10.334;2023-07-02T08:38:23;8.52;;;5.93;;
28174;SDS011;59417;44.788;10.334;2023-07-02T08:40:49;6.40;;;5.15;;
28174;SDS011;59417;44.788;10.334;2023-07-02T08:43:15;12.25;;;9.48;;
28174;SDS011;59417;44.788;10.334;2023-07-02T08:45:41;7.53;;;5.47;;
28174;SDS011;59417;44.788;10.334;2023-07-02T08:48:08;10.25;;;6.50;;
28174;SDS011;59417;44.788;10.334;2023-07-02T08:50:34;7.03;;;6.13;;
28174;SDS011;59417;44.788;10.334;2023-07-02T08:52:59;7.68;;;5.57;;
28174;SDS011;59417;44.788;10.334;2023-07-02T08:55:25;6.60;;;5.65;;
28174;SDS011;59417;44.788;10.334;2023-07-02T08:57:55;8.52;;;6.05;;
28174;SDS011;59417;44.788;10.334;2023-07-02T09:00:25;9.77;;;6.22;;
28174;SDS011;59417;44.788;10.334;2023-07-02T09:02:51;9.43;;;6.25;;
28174;SDS011;59417;44.788;10.334;2023-07-02T09:05:18;12.95;;;6.72;;
28174;SDS011;59417;44.788;10.334;2023-07-02T09:07:48;7.82;;;6.47;;
28174;SDS011;59417;44.788;10.334;2023-07-02T09:10:30;8.13;;;5.88;;
28174;SDS011;59417;44.788;10.334;2023-07-02T09:13:06;7.18;;;6.18;;
28174;SDS011;59417;44.788;10.334;2023-07-02T09:15:35;13.10;;;7.15;;
28174;SDS011;59417;44.788;10.334;2023-07-02T09:18:02;8.27;;;6.68;;
28174;SDS011;59417;44.788;10.334;2023-07-02T09:20:34;8.07;;;7.10;;
28174;SDS011;59417;44.788;10.334;2023-07-02T09:22:59;9.63;;;6.63;;
28174;SDS011;59417;44.788;10.334;2023-07-02T09:25:38;6.72;;;6.03;;
28174;SDS011;59417;44.788;10.334;2023-07-02T09:28:17;9.25;;;5.93;;
28174;SDS011;59417;44.788;10.334;2023-07-02T09:31:03;7.68;;;6.30;;
28174;SDS011;59417;44.788;10.334;2023-07-02T09:33:30;10.80;;;7.30;;
28174;SDS011;59417;44.788;10.334;2023-07-02T09:35:56;11.45;;;8.38;;
28174;SDS011;59417;44.788;10.334;2023-07-02T09:38:22;9.63;;;6.50;;
28174;SDS011;59417;44.788;10.334;2023-07-02T09:40:51;8.43;;;6.70;;
28174;SDS011;59417;44.788;10.334;2023-07-02T09:43:18;7.75;;;6.85;;
28174;SDS011;59417;44.788;10.334;2023-07-02T09:45:45;10.23;;;7.38;;
28174;SDS011;59417;44.788;10.334;2023-07-02T09:48:16;12.80;;;8.88;;
28174;SDS011;59417;44.788;10.334;2023-07-02T09:50:43;11.73;;;9.32;;
28174;SDS011;59417;44.788;10.334;2023-07-02T09:53:10;10.07;;;7.88;;
28174;SDS011;59417;44.788;10.334;2023-07-02T09:55:37;9.63;;;7.97;;
28174;SDS011;59417;44.788;10.334;2023-07-02T09:58:12;11.50;;;7.55;;
28174;SDS011;59417;44.788;10.334;2023-07-02T10:00:38;11.05;;;8.77;;
28174;SDS011;59417;44.788;10.334;2023-07-02T10:03:04;9.98;;;8.27;;
28174;SDS011;59417;44.788;10.334;2023-07-02T10:05:31;7.85;;;7.13;;
28174;SDS011;59417;44.788;10.334;2023-07-02T10:07:58;7.55;;;6.78;;
28174;SDS011;59417;44.788;10.334;2023-07-02T10:10:36;11.00;;;8.80;;
28174;SDS011;59417;44.788;10.334;2023-07-02T10:13:02;9.57;;;7.05;;
28174;SDS011;59417;44.788;10.334;2023-07-02T10:15:28;9.05;;;6.93;;
28174;SDS011;59417;44.788;10.334;2023-07-02T10:17:55;12.05;;;7.35;;
28174;SDS011;59417;44.788;10.334;2023-07-02T10:20:37;8.55;;;6.53;;
28174;SDS011;59417;44.788;10.334;2023-07-02T10:23:05;8.55;;;6.43;;
28174;SDS011;59417;44.788;10.334;2023-07-02T10:25:32;9.70;;;8.65;;
28174;SDS011;59417;44.788;10.334;2023-07-02T10:28:01;8.60;;;6.95;;
28174;SDS011;59417;44.788;10.334;2023-07-02T10:30:34;10.43;;;7.57;;
28174;SDS011;59417;44.788;10.334;2023-07-02T10:33:11;8.60;;;7.50;;
28174;SDS011;59417;44.788;10.334;2023-07-02T10:35:38;12.48;;;8.98;;
28174;SDS011;59417;44.788;10.334;2023-07-02T10:38:07;15.18;;;12.20;;
28174;SDS011;59417;44.788;10.334;2023-07-02T10:40:39;10.98;;;9.38;;
28174;SDS011;59417;44.788;10.334;2023-07-02T10:43:06;9.82;;;7.88;;
28174;SDS011;59417;44.788;10.334;2023-07-02T10:45:33;7.25;;;6.45;;
28174;SDS011;59417;44.788;10.334;2023-07-02T10:48:01;8.95;;;6.85;;
28174;SDS011;59417;44.788;10.334;2023-07-02T10:50:33;12.90;;;8.07;;
28174;SDS011;59417;44.788;10.334;2023-07-02T10:52:59;9.90;;;6.93;;
28174;SDS011;59417;44.788;10.334;2023-07-02T10:55:25;7.68;;;6.63;;
28174;SDS011;59417;44.788;10.334;2023-07-02T10:58:02;8.98;;;7.15;;
28174;SDS011;59417;44.788;10.334;2023-07-02T11:00:32;8.75;;;6.82;;
28174;SDS011;59417;44.788;10.334;2023-07-02T11:02:58;9.13;;;6.47;;
28174;SDS011;59417;44.788;10.334;2023-07-02T11:05:24;9.43;;;7.43;;
28174;SDS011;59417;44.788;10.334;2023-07-02T11:07:50;11.60;;;7.40;;
28174;SDS011;59417;44.788;10.334;2023-07-02T11:10:22;10.98;;;7.18;;
28174;SDS011;59417;44.788;10.334;2023-07-02T11:12:49;8.32;;;6.82;;
28174;SDS011;59417;44.788;10.334;2023-07-02T11:15:15;8.25;;;6.43;;
28174;SDS011;59417;44.788;10.334;2023-07-02T11:17:45;8.95;;;7.18;;
28174;SDS011;59417;44.788;10.334;2023-07-02T11:20:12;6.93;;;5.95;;
28174;SDS011;59417;44.788;10.334;2023-07-02T11:22:39;8.57;;;6.72;;
28174;SDS011;59417;44.788;10.334;2023-07-02T11:25:13;7.10;;;6.38;;
28174;SDS011;59417;44.788;10.334;2023-07-02T11:27:41;8.07;;;6.15;;
28174;SDS011;59417;44.788;10.334;2023-07-02T11:30:10;7.82;;;6.05;;
28174;SDS011;59417;44.788;10.334;2023-07-02T11:32:54;7.60;;;6.57;;
28174;SDS011;59417;44.788;10.334;2023-07-02T11:35:20;10.75;;;7.70;;
28174;SDS011;59417;44.788;10.334;2023-07-02T11:37:47;7.18;;;6.30;;
28174;SDS011;59417;44.788;10.334;2023-07-02T11:40:14;9.80;;;6.65;;
28174;SDS011;59417;44.788;10.334;2023-07-02T11:42:42;9.95;;;6.85;;
28174;SDS011;59417;44.788;10.334;2023-07-02T11:45:09;9.75;;;6.03;;
28174;SDS011;59417;44.788;10.334;2023-07-02T11:47:35;8.50;;;6.68;;
28174;SDS011;59417;44.788;10.334;2023-07-02T11:50:00;8.23;;;7.00;;
28174;SDS011;59417;44.788;10.334;2023-07-02T11:52:26;10.85;;;7.20;;
28174;SDS011;59417;44.788;10.334;2023-07-02T11:54:51;7.22;;;6.18;;
28174;SDS011;59417;44.788;10.334;2023-07-02T11:57:17;10.55;;;7.15;;
28174;SDS011;59417;44.788;10.334;2023-07-02T11:59:42;6.85;;;6.18;;
28174;SDS011;59417;44.788;10.334;2023-07-02T12:02:08;7.75;;;6.93;;
28174;SDS011;59417;44.788;10.334;2023-07-02T12:04:34;9.27;;;6.40;;
28174;SDS011;59417;44.788;10.334;2023-07-02T12:07:00;7.90;;;6.05;;
28174;SDS011;59417;44.788;10.334;2023-07-02T12:09:28;8.50;;;6.50;;
28174;SDS011;59417;44.788;10.334;2023-07-02T12:11:54;7.13;;;6.00;;
28174;SDS011;59417;44.788;10.334;2023-07-02T12:14:20;7.32;;;6.10;;
28174;SDS011;59417;44.788;10.334;2023-07-02T12:16:45;8.70;;;6.50;;
28174;SDS011;59417;44.788;10.334;2023-07-02T12:19:11;6.35;;;5.65;;
28174;SDS011;59417;44.788;10.334;2023-07-02T12:21:37;8.48;;;6.45;;
28174;SDS011;59417;44.788;10.334;2023-07-02T12:24:02;7.55;;;5.85;;
28174;SDS011;59417;44.788;10.334;2023-07-02T12:26:33;7.65;;;5.95;;
28174;SDS011;59417;44.788;10.334;2023-07-02T12:28:59;12.73;;;6.28;;
28174;SDS011;59417;44.788;10.334;2023-07-02T12:31:24;6.78;;;4.93;;
28174;SDS011;59417;44.788;10.334;2023-07-02T12:33:50;7.70;;;4.88;;
28174;SDS011;59417;44.788;10.334;2023-07-02T12:36:16;6.97;;;5.90;;
28174;SDS011;59417;44.788;10.334;2023-07-02T12:38:41;7.38;;;5.97;;
28174;SDS011;59417;44.788;10.334;2023-07-02T12:41:07;5.80;;;5.30;;
28174;SDS011;59417;44.788;10.334;2023-07-02T12:43:33;6.53;;;5.43;;
28174;SDS011;59417;44.788;10.334;2023-07-02T12:45:58;9.50;;;6.07;;
28174;SDS011;59417;44.788;10.334;2023-07-02T12:48:24;6.47;;;5.50;;
28174;SDS011;59417;44.788;10.334;2023-07-02T12:50:56;8.43;;;6.32;;
28174;SDS011;59417;44.788;10.334;2023-07-02T12:53:23;6.15;;;5.55;;
28174;SDS011;59417;44.788;10.334;2023-07-02T12:55:50;7.40;;;5.43;;
28174;SDS011;59417;44.788;10.334;2023-07-02T12:58:15;6.45;;;5.05;;
28174;SDS011;59417;44.788;10.334;2023-07-02T13:00:41;7.97;;;5.05;;
28174;SDS011;59417;44.788;10.334;2023-07-02T13:03:10;6.68;;;5.40;;
28174;SDS011;59417;44.788;10.334;2023-07-02T13:05:37;6.20;;;5.60;;
28174;SDS011;59417;44.788;10.334;2023-07-02T13:08:04;6.07;;;4.85;;
28174;SDS011;59417;44.788;10.334;2023-07-02T13:10:30;7.38;;;5.15;;
28174;SDS011;59417;44.788;10.334;2023-07-02T13:12:56;6.85;;;5.65;;
28174;SDS011;59417;44.788;10.334;2023-07-02T13:15:22;7.70;;;5.03;;
28174;SDS011;59417;44.788;10.334;2023-07-02T13:17:47;6.32;;;5.20;;
28174;SDS011;59417;44.788;10.334;2023-07-02T13:20:13;7.55;;;5.22;;
28174;SDS011;59417;44.788;10.334;2023-07-02T13:22:39;6.60;;;5.22;;
28174;SDS011;59417;44.788;10.334;2023-07-02T13:25:05;6.53;;;5.80;;
28174;SDS011;59417;44.788;10.334;2023-07-02T13:27:31;5.85;;;5.25;;
28174;SDS011;59417;44.788;10.334;2023-07-02T13:29:57;7.43;;;5.68;;
28174;SDS011;59417;44.788;10.334;2023-07-02T13:32:23;6.00;;;4.93;;
28174;SDS011;59417;44.788;10.334;2023-07-02T13:34:49;7.35;;;5.47;;
28174;SDS011;59417;44.788;10.334;2023-07-02T13:37:15;6.57;;;4.80;;
28174;SDS011;59417;44.788;10.334;2023-07-02T13:39:44;8.85;;;4.65;;
28174;SDS011;59417;44.788;10.334;2023-07-02T13:42:13;5.68;;;4.95;;
28174;SDS011;59417;44.788;10.334;2023-07-02T13:44:39;5.68;;;5.18;;
28174;SDS011;59417;44.788;10.334;2023-07-02T13:47:05;7.53;;;4.75;;
28174;SDS011;59417;44.788;10.334;2023-07-02T13:49:32;7.60;;;5.00;;
28174;SDS011;59417;44.788;10.334;2023-07-02T13:51:58;5.90;;;4.68;;
28174;SDS011;59417;44.788;10.334;2023-07-02T13:54:24;6.32;;;5.32;;
28174;SDS011;59417;44.788;10.334;2023-07-02T13:56:50;6.20;;;5.60;;
28174;SDS011;59417;44.788;10.334;2023-07-02T13:59:16;5.53;;;4.95;;
28174;SDS011;59417;44.788;10.334;2023-07-02T14:01:43;7.72;;;5.30;;
28174;SDS011;59417;44.788;10.334;2023-07-02T14:04:09;7.40;;;5.38;;
28174;SDS011;59417;44.788;10.334;2023-07-02T14:06:35;5.53;;;4.53;;
28174;SDS011;59417;44.788;10.334;2023-07-02T14:09:00;5.85;;;4.88;;
28174;SDS011;59417;44.788;10.334;2023-07-02T14:11:28;5.65;;;5.03;;
28174;SDS011;59417;44.788;10.334;2023-07-02T14:13:54;6.28;;;5.00;;
28174;SDS011;59417;44.788;10.334;2023-07-02T14:16:23;7.55;;;5.10;;
28174;SDS011;59417;44.788;10.334;2023-07-02T14:18:49;5.20;;;4.70;;
28174;SDS011;59417;44.788;10.334;2023-07-02T14:21:15;6.97;;;5.30;;
28174;SDS011;59417;44.788;10.334;2023-07-02T14:23:41;7.53;;;5.45;;
28174;SDS011;59417;44.788;10.334;2023-07-02T14:26:06;5.35;;;4.85;;
28174;SDS011;59417;44.788;10.334;2023-07-02T14:28:33;7.63;;;4.85;;